sensor_id;sensor_type;location;lat;lon;timestamp;pressure;altitude;pressure_sealevel;temperature;humidity
6198;BME280;3132;42.622;23.328;2023-01-19T00:01:35;91667.44;;;13.29;49.85
6198;BME280;3132;42.622;23.328;2023-01-19T00:04:00;91681.75;;;13.31;50.03
6198;BME280;3132;42.622;23.328;2023-01-19T00:06:26;91678.47;;;13.34;50.34
6198;BME280;3132;42.622;23.328;2023-01-19T00:08:51;91670.91;;;13.41;49.83
6198;BME280;3132;42.622;23.328;2023-01-19T00:11:17;91688.16;;;13.42;50.93
6198;BME280;3132;42.622;23.328;2023-01-19T00:13:43;91653.38;;;13.33;50.00
6198;BME280;3132;42.622;23.328;2023-01-19T00:16:15;91683.94;;;13.50;49.77
6198;BME280;3132;42.622;23.328;2023-01-19T00:18:46;91682.53;;;13.32;49.94
6198;BME280;3132;42.622;23.328;2023-01-19T00:21:12;91685.34;;;13.47;49.26
6198;BME280;3132;42.622;23.328;2023-01-19T00:23:41;91704.28;;;13.53;49.37
6198;BME280;3132;42.622;23.328;2023-01-19T00:26:08;91651.19;;;13.06;50.56
6198;BME280;3132;42.622;23.328;2023-01-19T00:28:34;91718.50;;;13.52;49.70
6198;BME280;3132;42.622;23.328;2023-01-19T00:30:59;91704.81;;;13.46;50.03
6198;BME280;3132;42.622;23.328;2023-01-19T00:33:25;91701.28;;;13.42;49.78
6198;BME280;3132;42.622;23.328;2023-01-19T00:35:53;91692.59;;;13.50;49.19
6198;BME280;3132;42.622;23.328;2023-01-19T00:38:19;91701.47;;;13.58;49.63
6198;BME280;3132;42.622;23.328;2023-01-19T00:40:46;91739.31;;;13.48;49.77
6198;BME280;3132;42.622;23.328;2023-01-19T00:43:11;91712.47;;;13.51;49.08
6198;BME280;3132;42.622;23.328;2023-01-19T00:45:36;91717.06;;;13.34;49.57
6198;BME280;3132;42.622;23.328;2023-01-19T00:48:02;91697.75;;;13.38;48.97
6198;BME280;3132;42.622;23.328;2023-01-19T00:50:29;91743.84;;;13.39;49.45
6198;BME280;3132;42.622;23.328;2023-01-19T00:52:55;91707.97;;;13.31;49.74
6198;BME280;3132;42.622;23.328;2023-01-19T00:55:22;91696.94;;;13.46;48.65
6198;BME280;3132;42.622;23.328;2023-01-19T00:57:48;91706.34;;;13.47;48.91
6198;BME280;3132;42.622;23.328;2023-01-19T01:00:16;91703.88;;;13.42;49.19
6198;BME280;3132;42.622;23.328;2023-01-19T01:02:42;91690.69;;;13.30;49.71
6198;BME280;3132;42.622;23.328;2023-01-19T01:05:08;91677.53;;;13.39;49.70
6198;BME280;3132;42.622;23.328;2023-01-19T01:07:35;91673.94;;;13.43;49.26
6198;BME280;3132;42.622;23.328;2023-01-19T01:10:26;91671.09;;;13.36;49.75
6198;BME280;3132;42.622;23.328;2023-01-19T01:12:52;91693.69;;;13.49;48.75
6198;BME280;3132;42.622;23.328;2023-01-19T01:15:18;91677.53;;;13.39;48.96
6198;BME280;3132;42.622;23.328;2023-01-19T01:17:44;91676.66;;;13.35;49.05
6198;BME280;3132;42.622;23.328;2023-01-19T01:22:41;91663.41;;;13.31;48.67
6198;BME280;3132;42.622;23.328;2023-01-19T01:25:19;91680.22;;;13.30;49.77
6198;BME280;3132;42.622;23.328;2023-01-19T01:27:46;91686.50;;;13.38;48.90
6198;BME280;3132;42.622;23.328;2023-01-19T01:30:13;91681.56;;;13.36;48.52
6198;BME280;3132;42.622;23.328;2023-01-19T01:32:39;91667.44;;;13.29;48.88
6198;BME280;3132;42.622;23.328;2023-01-19T01:35:05;91677.75;;;13.34;48.48
6198;BME280;3132;42.622;23.328;2023-01-19T01:37:33;91690.84;;;13.34;49.11
6198;BME280;3132;42.622;23.328;2023-01-19T01:39:59;91703.75;;;13.39;48.30
6198;BME280;3132;42.622;23.328;2023-01-19T01:42:27;91709.13;;;13.42;48.59
6198;BME280;3132;42.622;23.328;2023-01-19T01:44:58;91711.94;;;13.37;47.96
6198;BME280;3132;42.622;23.328;2023-01-19T01:47:42;91689.59;;;13.31;48.13
6198;BME280;3132;42.622;23.328;2023-01-19T01:50:25;91697.47;;;13.31;48.07
6198;BME280;3132;42.622;23.328;2023-01-19T01:52:55;91677.63;;;13.22;48.07
6198;BME280;3132;42.622;23.328;2023-01-19T01:55:24;91701.91;;;13.39;48.32
6198;BME280;3132;42.622;23.328;2023-01-19T01:57:56;91696.84;;;13.34;47.49
6198;BME280;3132;42.622;23.328;2023-01-19T02:00:24;91733.50;;;13.43;47.79
6198;BME280;3132;42.622;23.328;2023-01-19T02:02:50;91708.78;;;13.52;46.87
6198;BME280;3132;42.622;23.328;2023-01-19T02:05:32;91714.66;;;13.49;46.76
6198;BME280;3132;42.622;23.328;2023-01-19T02:10:46;91716.97;;;13.51;46.95
6198;BME280;3132;42.622;23.328;2023-01-19T02:13:33;91716.84;;;13.39;47.25
6198;BME280;3132;42.622;23.328;2023-01-19T02:16:02;91707.94;;;13.40;47.26
6198;BME280;3132;42.622;23.328;2023-01-19T02:18:31;91709.94;;;13.34;47.37
6198;BME280;3132;42.622;23.328;2023-01-19T02:23:47;91676.50;;;13.31;47.67
6198;BME280;3132;42.622;23.328;2023-01-19T02:26:17;91688.25;;;13.25;47.82
6198;BME280;3132;42.622;23.328;2023-01-19T02:28:47;91660.03;;;13.31;47.24
6198;BME280;3132;42.622;23.328;2023-01-19T02:31:13;91682.03;;;13.38;47.18
6198;BME280;3132;42.622;23.328;2023-01-19T02:33:39;91697.88;;;13.42;46.83
6198;BME280;3132;42.622;23.328;2023-01-19T02:36:06;91679.59;;;13.33;47.23
6198;BME280;3132;42.622;23.328;2023-01-19T02:38:35;91687.69;;;13.40;47.20
6198;BME280;3132;42.622;23.328;2023-01-19T02:41:03;91687.53;;;13.45;46.80
6198;BME280;3132;42.622;23.328;2023-01-19T02:43:31;91667.69;;;13.36;47.69
6198;BME280;3132;42.622;23.328;2023-01-19T02:45:57;91678.31;;;13.39;47.25
6198;BME280;3132;42.622;23.328;2023-01-19T02:48:23;91691.47;;;13.31;47.56
6198;BME280;3132;42.622;23.328;2023-01-19T02:50:51;91699.78;;;13.33;47.40
6198;BME280;3132;42.622;23.328;2023-01-19T02:58:44;91693.03;;;13.23;47.48
6198;BME280;3132;42.622;23.328;2023-01-19T03:01:26;91681.75;;;13.31;46.86
6198;BME280;3132;42.622;23.328;2023-01-19T03:06:52;91689.53;;;13.19;46.90
6198;BME280;3132;42.622;23.328;2023-01-19T03:14:46;91710.00;;;13.26;47.01
6198;BME280;3132;42.622;23.328;2023-01-19T03:17:14;91697.56;;;13.14;46.86
6198;BME280;3132;42.622;23.328;2023-01-19T03:19:42;91709.06;;;13.22;47.51
6198;BME280;3132;42.622;23.328;2023-01-19T03:22:13;91699.88;;;13.16;46.96
6198;BME280;3132;42.622;23.328;2023-01-19T03:24:41;91703.44;;;13.11;48.15
6198;BME280;3132;42.622;23.328;2023-01-19T03:27:11;91692.94;;;13.11;47.23
6198;BME280;3132;42.622;23.328;2023-01-19T03:29:41;91704.34;;;13.15;47.06
6198;BME280;3132;42.622;23.328;2023-01-19T03:32:14;91715.72;;;13.19;47.21
6198;BME280;3132;42.622;23.328;2023-01-19T03:34:42;91700.97;;;13.06;47.87
6198;BME280;3132;42.622;23.328;2023-01-19T03:37:10;91672.22;;;12.89;47.29
6198;BME280;3132;42.622;23.328;2023-01-19T03:39:35;91725.31;;;13.15;47.41
6198;BME280;3132;42.622;23.328;2023-01-19T03:42:05;91714.63;;;13.20;47.18
6198;BME280;3132;42.622;23.328;2023-01-19T03:44:33;91713.44;;;13.09;48.00
6198;BME280;3132;42.622;23.328;2023-01-19T03:47:01;91693.59;;;13.08;47.18
6198;BME280;3132;42.622;23.328;2023-01-19T03:49:29;91693.59;;;13.08;46.39
6198;BME280;3132;42.622;23.328;2023-01-19T03:51:55;91711.28;;;13.20;46.68
6198;BME280;3132;42.622;23.328;2023-01-19T03:54:23;91713.56;;;13.21;46.30
6198;BME280;3132;42.622;23.328;2023-01-19T03:56:49;91702.94;;;13.18;46.33
6198;BME280;3132;42.622;23.328;2023-01-19T03:59:16;91706.03;;;13.20;45.93
6198;BME280;3132;42.622;23.328;2023-01-19T04:01:42;91724.50;;;13.23;45.99
6198;BME280;3132;42.622;23.328;2023-01-19T04:04:07;91717.16;;;13.17;45.97
6198;BME280;3132;42.622;23.328;2023-01-19T04:06:32;91719.31;;;13.15;46.25
6198;BME280;3132;42.622;23.328;2023-01-19T04:08:58;91717.91;;;13.17;45.44
6198;BME280;3132;42.622;23.328;2023-01-19T04:11:23;91682.97;;;13.05;44.92
6198;BME280;3132;42.622;23.328;2023-01-19T04:13:49;91712.66;;;13.17;45.12
6198;BME280;3132;42.622;23.328;2023-01-19T04:16:14;91707.00;;;13.36;44.51
6198;BME280;3132;42.622;23.328;2023-01-19T04:18:44;91715.59;;;13.16;44.81
6198;BME280;3132;42.622;23.328;2023-01-19T04:21:09;91734.00;;;13.36;44.21
6198;BME280;3132;42.622;23.328;2023-01-19T04:23:35;91717.47;;;13.15;44.51
6198;BME280;3132;42.622;23.328;2023-01-19T04:26:03;91740.03;;;13.28;44.64
6198;BME280;3132;42.622;23.328;2023-01-19T04:28:29;91736.84;;;13.23;43.55
6198;BME280;3132;42.622;23.328;2023-01-19T04:30:54;91720.00;;;13.32;44.34
6198;BME280;3132;42.622;23.328;2023-01-19T04:33:20;91753.13;;;13.37;44.24
6198;BME280;3132;42.622;23.328;2023-01-19T04:35:47;91773.94;;;13.33;44.04
6198;BME280;3132;42.622;23.328;2023-01-19T04:38:13;91735.09;;;13.35;43.96
6198;BME280;3132;42.622;23.328;2023-01-19T04:40:39;91752.34;;;13.36;43.85
6198;BME280;3132;42.622;23.328;2023-01-19T04:43:05;91772.84;;;13.34;44.42
6198;BME280;3132;42.622;23.328;2023-01-19T04:45:30;91749.81;;;13.48;43.04
6198;BME280;3132;42.622;23.328;2023-01-19T04:47:56;91764.38;;;13.37;43.54
6198;BME280;3132;42.622;23.328;2023-01-19T04:50:21;91753.75;;;13.34;43.89
6198;BME280;3132;42.622;23.328;2023-01-19T04:52:47;91731.94;;;13.13;44.31
6198;BME280;3132;42.622;23.328;2023-01-19T04:55:13;91729.63;;;13.11;44.42
6198;BME280;3132;42.622;23.328;2023-01-19T04:57:38;91738.72;;;13.14;44.12
6198;BME280;3132;42.622;23.328;2023-01-19T05:00:05;91761.78;;;13.29;43.77
6198;BME280;3132;42.622;23.328;2023-01-19T05:02:31;91754.38;;;13.31;43.80
6198;BME280;3132;42.622;23.328;2023-01-19T05:04:57;91733.50;;;13.05;44.72
6198;BME280;3132;42.622;23.328;2023-01-19T05:07:23;91760.91;;;13.16;44.17
6198;BME280;3132;42.622;23.328;2023-01-19T05:09:48;91783.41;;;13.17;43.93
6198;BME280;3132;42.622;23.328;2023-01-19T05:12:14;91777.59;;;13.12;44.46
6198;BME280;3132;42.622;23.328;2023-01-19T05:14:40;91792.19;;;13.21;44.13
6198;BME280;3132;42.622;23.328;2023-01-19T05:17:05;91762.91;;;13.19;43.61
6198;BME280;3132;42.622;23.328;2023-01-19T05:19:30;91797.44;;;13.21;44.03
6198;BME280;3132;42.622;23.328;2023-01-19T05:21:56;91801.13;;;13.20;45.47
6198;BME280;3132;42.622;23.328;2023-01-19T05:24:21;91828.06;;;13.29;43.31
6198;BME280;3132;42.622;23.328;2023-01-19T05:26:46;91814.81;;;13.34;43.03
6198;BME280;3132;42.622;23.328;2023-01-19T05:29:12;91804.78;;;13.36;43.19
6198;BME280;3132;42.622;23.328;2023-01-19T05:31:37;91825.91;;;13.40;43.08
6198;BME280;3132;42.622;23.328;2023-01-19T05:34:03;91815.53;;;13.43;42.82
6198;BME280;3132;42.622;23.328;2023-01-19T05:36:29;91812.47;;;13.41;43.33
6198;BME280;3132;42.622;23.328;2023-01-19T05:38:55;91816.47;;;13.39;43.17
6198;BME280;3132;42.622;23.328;2023-01-19T05:41:20;91806.63;;;13.36;42.57
6198;BME280;3132;42.622;23.328;2023-01-19T05:43:45;91805.47;;;13.16;43.09
6198;BME280;3132;42.622;23.328;2023-01-19T05:46:11;91828.91;;;13.21;43.26
6198;BME280;3132;42.622;23.328;2023-01-19T05:48:37;91840.59;;;13.32;43.17
6198;BME280;3132;42.622;23.328;2023-01-19T05:51:02;91838.88;;;13.28;43.54
6198;BME280;3132;42.622;23.328;2023-01-19T05:53:29;91821.91;;;13.34;42.53
6198;BME280;3132;42.622;23.328;2023-01-19T05:56:05;91819.16;;;13.30;42.92
6198;BME280;3132;42.622;23.328;2023-01-19T05:58:33;91835.66;;;13.22;43.54
6198;BME280;3132;42.622;23.328;2023-01-19T06:01:03;91823.50;;;13.09;43.48
6198;BME280;3132;42.622;23.328;2023-01-19T06:03:33;91858.47;;;13.30;42.91
6198;BME280;3132;42.622;23.328;2023-01-19T06:05:59;91856.75;;;13.34;43.10
6198;BME280;3132;42.622;23.328;2023-01-19T06:08:25;91835.25;;;13.12;44.16
6198;BME280;3132;42.622;23.328;2023-01-19T06:10:50;91820.25;;;13.12;42.74
6198;BME280;3132;42.622;23.328;2023-01-19T06:13:15;91845.50;;;13.34;44.23
6198;BME280;3132;42.622;23.328;2023-01-19T06:15:42;91849.34;;;13.45;42.24
6198;BME280;3132;42.622;23.328;2023-01-19T06:18:09;91831.72;;;13.45;42.28
6198;BME280;3132;42.622;23.328;2023-01-19T06:20:35;91859.63;;;13.50;42.75
6198;BME280;3132;42.622;23.328;2023-01-19T06:23:00;91836.03;;;13.50;42.16
6198;BME280;3132;42.622;23.328;2023-01-19T06:25:26;91834.91;;;13.59;41.73
6198;BME280;3132;42.622;23.328;2023-01-19T06:27:51;91828.78;;;13.55;42.56
6198;BME280;3132;42.622;23.328;2023-01-19T06:30:17;91839.19;;;13.72;41.36
6198;BME280;3132;42.622;23.328;2023-01-19T06:32:42;91832.06;;;13.73;41.60
6198;BME280;3132;42.622;23.328;2023-01-19T06:35:08;91827.50;;;13.61;41.97
6198;BME280;3132;42.622;23.328;2023-01-19T06:37:34;91845.06;;;13.69;41.41
6198;BME280;3132;42.622;23.328;2023-01-19T06:39:59;91831.94;;;13.69;41.18
6198;BME280;3132;42.622;23.328;2023-01-19T06:42:25;91836.41;;;13.77;41.23
6198;BME280;3132;42.622;23.328;2023-01-19T06:44:50;91823.06;;;13.82;41.57
6198;BME280;3132;42.622;23.328;2023-01-19T06:47:16;91847.44;;;13.91;40.84
6198;BME280;3132;42.622;23.328;2023-01-19T06:49:41;91842.59;;;14.02;39.88
6198;BME280;3132;42.622;23.328;2023-01-19T06:52:08;91838.28;;;13.97;40.38
6198;BME280;3132;42.622;23.328;2023-01-19T06:54:35;91850.22;;;13.86;39.90
6198;BME280;3132;42.622;23.328;2023-01-19T06:57:01;91856.47;;;14.02;40.31
6198;BME280;3132;42.622;23.328;2023-01-19T06:59:26;91854.13;;;14.09;39.43
6198;BME280;3132;42.622;23.328;2023-01-19T07:01:51;91872.19;;;14.02;39.89
6198;BME280;3132;42.622;23.328;2023-01-19T07:04:17;91855.22;;;14.08;39.38
6198;BME280;3132;42.622;23.328;2023-01-19T07:06:42;91861.03;;;14.14;39.49
6198;BME280;3132;42.622;23.328;2023-01-19T07:09:07;91862.56;;;14.15;39.22
6198;BME280;3132;42.622;23.328;2023-01-19T07:11:35;91858.66;;;14.29;38.74
6198;BME280;3132;42.622;23.328;2023-01-19T07:14:01;91857.56;;;14.30;38.83
6198;BME280;3132;42.622;23.328;2023-01-19T07:16:28;91858.69;;;14.21;39.05
6198;BME280;3132;42.622;23.328;2023-01-19T07:18:53;91863.41;;;14.36;39.03
6198;BME280;3132;42.622;23.328;2023-01-19T07:21:19;91886.00;;;14.20;40.04
6198;BME280;3132;42.622;23.328;2023-01-19T07:23:47;91855.25;;;14.29;38.71
6198;BME280;3132;42.622;23.328;2023-01-19T07:26:12;91858.84;;;14.24;38.79
6198;BME280;3132;42.622;23.328;2023-01-19T07:28:39;91848.84;;;14.38;38.77
6198;BME280;3132;42.622;23.328;2023-01-19T07:31:05;91877.75;;;14.38;39.07
6198;BME280;3132;42.622;23.328;2023-01-19T07:33:31;91853.97;;;14.35;38.38
6198;BME280;3132;42.622;23.328;2023-01-19T07:35:57;91820.81;;;14.30;38.53
6198;BME280;3132;42.622;23.328;2023-01-19T07:38:22;91845.91;;;14.40;37.72
6198;BME280;3132;42.622;23.328;2023-01-19T07:40:48;91851.13;;;14.48;38.74
6198;BME280;3132;42.622;23.328;2023-01-19T07:43:14;91857.84;;;14.58;38.08
6198;BME280;3132;42.622;23.328;2023-01-19T07:45:40;91840.84;;;14.56;37.50
6198;BME280;3132;42.622;23.328;2023-01-19T07:48:05;91858.91;;;14.57;37.91
6198;BME280;3132;42.622;23.328;2023-01-19T07:50:31;91837.59;;;14.59;37.35
6198;BME280;3132;42.622;23.328;2023-01-19T07:52:56;91854.25;;;14.63;38.31
6198;BME280;3132;42.622;23.328;2023-01-19T07:55:23;91840.66;;;14.61;37.89
6198;BME280;3132;42.622;23.328;2023-01-19T07:57:49;91854.75;;;14.77;36.44
6198;BME280;3132;42.622;23.328;2023-01-19T08:00:19;91820.16;;;14.75;36.19
6198;BME280;3132;42.622;23.328;2023-01-19T08:02:50;91845.66;;;15.07;36.58
6198;BME280;3132;42.622;23.328;2023-01-19T08:05:19;91861.50;;;14.86;37.29
6198;BME280;3132;42.622;23.328;2023-01-19T08:07:45;91823.28;;;14.89;36.41
6198;BME280;3132;42.622;23.328;2023-01-19T08:10:12;91831.09;;;14.97;37.42
6198;BME280;3132;42.622;23.328;2023-01-19T08:12:38;91844.56;;;14.96;36.25
6198;BME280;3132;42.622;23.328;2023-01-19T08:15:05;91838.66;;;14.99;36.93
6198;BME280;3132;42.622;23.328;2023-01-19T08:17:30;91854.22;;;15.04;36.83
6198;BME280;3132;42.622;23.328;2023-01-19T08:19:56;91855.78;;;15.17;37.19
6198;BME280;3132;42.622;23.328;2023-01-19T08:22:21;91840.19;;;15.00;36.72
6198;BME280;3132;42.622;23.328;2023-01-19T08:24:47;91852.22;;;15.01;37.77
6198;BME280;3132;42.622;23.328;2023-01-19T08:27:12;91834.41;;;15.06;39.35
6198;BME280;3132;42.622;23.328;2023-01-19T08:29:37;91853.44;;;15.36;37.12
6198;BME280;3132;42.622;23.328;2023-01-19T08:32:03;91859.75;;;15.23;36.21
6198;BME280;3132;42.622;23.328;2023-01-19T08:34:29;91843.97;;;15.23;35.73
6198;BME280;3132;42.622;23.328;2023-01-19T08:36:55;91853.63;;;15.19;35.79
6198;BME280;3132;42.622;23.328;2023-01-19T08:39:21;91860.59;;;15.15;36.53
6198;BME280;3132;42.622;23.328;2023-01-19T08:41:48;91872.56;;;15.24;36.10
6198;BME280;3132;42.622;23.328;2023-01-19T08:44:14;91844.19;;;15.18;35.88
6198;BME280;3132;42.622;23.328;2023-01-19T08:46:40;91862.06;;;15.24;36.59
6198;BME280;3132;42.622;23.328;2023-01-19T08:49:05;91865.03;;;15.35;36.81
6198;BME280;3132;42.622;23.328;2023-01-19T08:51:31;91854.34;;;15.40;36.36
6198;BME280;3132;42.622;23.328;2023-01-19T08:53:56;91839.06;;;15.33;36.18
6198;BME280;3132;42.622;23.328;2023-01-19T08:56:21;91852.66;;;15.35;36.59
6198;BME280;3132;42.622;23.328;2023-01-19T08:58:47;91847.50;;;15.27;37.83
6198;BME280;3132;42.622;23.328;2023-01-19T09:01:12;91829.72;;;15.24;37.20
6198;BME280;3132;42.622;23.328;2023-01-19T09:03:42;91788.72;;;14.99;36.23
6198;BME280;3132;42.622;23.328;2023-01-19T09:06:09;91834.72;;;15.37;36.44
6198;BME280;3132;42.622;23.328;2023-01-19T09:08:35;91835.94;;;15.52;36.04
6198;BME280;3132;42.622;23.328;2023-01-19T09:11:00;91781.97;;;15.34;36.52
6198;BME280;3132;42.622;23.328;2023-01-19T09:13:26;91812.28;;;15.52;36.02
6198;BME280;3132;42.622;23.328;2023-01-19T09:15:51;91829.16;;;15.51;35.65
6198;BME280;3132;42.622;23.328;2023-01-19T09:18:20;91821.28;;;15.51;36.25
6198;BME280;3132;42.622;23.328;2023-01-19T09:20:48;91810.94;;;15.46;36.64
6198;BME280;3132;42.622;23.328;2023-01-19T09:23:16;91788.09;;;15.26;35.75
6198;BME280;3132;42.622;23.328;2023-01-19T09:25:43;91815.34;;;15.42;36.18
6198;BME280;3132;42.622;23.328;2023-01-19T09:28:11;91802.31;;;15.45;36.70
6198;BME280;3132;42.622;23.328;2023-01-19T09:30:39;91792.50;;;15.34;36.21
6198;BME280;3132;42.622;23.328;2023-01-19T09:33:07;91803.06;;;15.46;37.01
6198;BME280;3132;42.622;23.328;2023-01-19T09:35:38;91806.56;;;15.38;36.63
6198;BME280;3132;42.622;23.328;2023-01-19T09:38:05;91789.88;;;15.34;36.88
6198;BME280;3132;42.622;23.328;2023-01-19T09:40:36;91783.78;;;15.42;37.05
6198;BME280;3132;42.622;23.328;2023-01-19T09:43:13;91796.16;;;15.41;36.92
6198;BME280;3132;42.622;23.328;2023-01-19T09:45:51;91794.09;;;15.47;37.38
6198;BME280;3132;42.622;23.328;2023-01-19T09:50:58;91798.78;;;15.53;36.95
6198;BME280;3132;42.622;23.328;2023-01-19T09:56:20;91785.88;;;15.60;36.22
6198;BME280;3132;42.622;23.328;2023-01-19T09:58:48;91800.47;;;15.70;36.95
6198;BME280;3132;42.622;23.328;2023-01-19T10:03:52;91795.84;;;15.55;36.58
6198;BME280;3132;42.622;23.328;2023-01-19T10:06:21;91773.91;;;15.63;36.40
6198;BME280;3132;42.622;23.328;2023-01-19T10:11:56;91782.47;;;15.60;37.08
6198;BME280;3132;42.622;23.328;2023-01-19T10:14:40;91798.59;;;15.70;36.91
6198;BME280;3132;42.622;23.328;2023-01-19T10:19:46;91772.16;;;15.43;37.36
6198;BME280;3132;42.622;23.328;2023-01-19T10:22:24;91754.25;;;15.36;36.65
6198;BME280;3132;42.622;23.328;2023-01-19T10:24:55;91757.03;;;15.52;37.21
6198;BME280;3132;42.622;23.328;2023-01-19T10:27:27;91774.50;;;15.56;37.64
6198;BME280;3132;42.622;23.328;2023-01-19T10:29:53;91771.63;;;15.61;36.48
6198;BME280;3132;42.622;23.328;2023-01-19T10:32:22;91766.25;;;15.46;37.82
6198;BME280;3132;42.622;23.328;2023-01-19T10:34:49;91769.91;;;15.21;37.49
6198;BME280;3132;42.622;23.328;2023-01-19T10:40:21;91767.50;;;15.16;37.20
6198;BME280;3132;42.622;23.328;2023-01-19T10:42:51;91746.22;;;14.97;37.68
6198;BME280;3132;42.622;23.328;2023-01-19T10:45:22;91750.63;;;15.17;37.16
6198;BME280;3132;42.622;23.328;2023-01-19T10:47:49;91809.72;;;15.31;39.18
6198;BME280;3132;42.622;23.328;2023-01-19T10:50:35;91764.22;;;15.19;37.27
6198;BME280;3132;42.622;23.328;2023-01-19T10:53:04;91778.03;;;15.28;38.32
6198;BME280;3132;42.622;23.328;2023-01-19T10:55:33;91766.00;;;15.27;37.75
6198;BME280;3132;42.622;23.328;2023-01-19T10:57:59;91743.94;;;15.19;38.96
6198;BME280;3132;42.622;23.328;2023-01-19T11:00:37;91777.47;;;14.78;41.17
6198;BME280;3132;42.622;23.328;2023-01-19T11:05:46;91731.84;;;14.94;39.50
6198;BME280;3132;42.622;23.328;2023-01-19T11:08:31;91727.59;;;15.02;39.23
6198;BME280;3132;42.622;23.328;2023-01-19T11:11:00;91748.44;;;15.19;39.42
6198;BME280;3132;42.622;23.328;2023-01-19T11:13:28;91738.38;;;15.33;38.83
6198;BME280;3132;42.622;23.328;2023-01-19T11:15:56;91727.00;;;15.65;38.53
6198;BME280;3132;42.622;23.328;2023-01-19T11:18:30;91721.53;;;15.70;37.94
6198;BME280;3132;42.622;23.328;2023-01-19T11:20:59;91720.84;;;15.85;37.78
6198;BME280;3132;42.622;23.328;2023-01-19T11:23:32;91729.50;;;15.85;37.02
6198;BME280;3132;42.622;23.328;2023-01-19T11:26:00;91735.63;;;15.89;37.14
6198;BME280;3132;42.622;23.328;2023-01-19T11:28:39;91737.50;;;15.89;37.75
6198;BME280;3132;42.622;23.328;2023-01-19T11:33:50;91737.50;;;15.77;37.42
6198;BME280;3132;42.622;23.328;2023-01-19T11:38:54;91715.41;;;15.42;36.82
6198;BME280;3132;42.622;23.328;2023-01-19T11:41:22;91716.25;;;15.70;36.78
6198;BME280;3132;42.622;23.328;2023-01-19T11:43:52;91702.44;;;15.73;37.37
6198;BME280;3132;42.622;23.328;2023-01-19T11:46:19;91718.66;;;15.75;36.73
6198;BME280;3132;42.622;23.328;2023-01-19T11:48:49;91701.69;;;15.60;36.26
6198;BME280;3132;42.622;23.328;2023-01-19T11:51:21;91730.28;;;15.74;36.88
6198;BME280;3132;42.622;23.328;2023-01-19T11:53:50;91732.03;;;15.82;36.03
6198;BME280;3132;42.622;23.328;2023-01-19T11:56:17;91719.00;;;15.61;36.31
6198;BME280;3132;42.622;23.328;2023-01-19T11:58:46;91703.19;;;15.61;36.12
6198;BME280;3132;42.622;23.328;2023-01-19T12:04:30;91707.72;;;15.61;36.55
6198;BME280;3132;42.622;23.328;2023-01-19T12:06:59;91663.97;;;15.44;36.01
6198;BME280;3132;42.622;23.328;2023-01-19T12:09:29;91714.16;;;15.75;36.37
6198;BME280;3132;42.622;23.328;2023-01-19T12:12:03;91707.31;;;15.98;36.14
6198;BME280;3132;42.622;23.328;2023-01-19T12:14:38;91716.91;;;15.67;36.54
6198;BME280;3132;42.622;23.328;2023-01-19T12:17:09;91691.25;;;15.52;36.44
6198;BME280;3132;42.622;23.328;2023-01-19T12:20:26;91712.09;;;15.57;36.35
6198;BME280;3132;42.622;23.328;2023-01-19T12:23:02;91701.34;;;15.62;35.93
6198;BME280;3132;42.622;23.328;2023-01-19T12:25:40;91700.47;;;15.46;36.40
6198;BME280;3132;42.622;23.328;2023-01-19T12:28:11;91705.53;;;15.51;36.75
6198;BME280;3132;42.622;23.328;2023-01-19T12:30:38;91676.13;;;15.37;35.82
6198;BME280;3132;42.622;23.328;2023-01-19T12:41:29;91730.91;;;15.23;36.56
6198;BME280;3132;42.622;23.328;2023-01-19T12:58:20;91701.53;;;14.85;42.46
6198;BME280;3132;42.622;23.328;2023-01-19T13:02:56;91706.31;;;14.83;39.50
6198;BME280;3132;42.622;23.328;2023-01-19T13:05:46;91736.56;;;14.89;37.84
6198;BME280;3132;42.622;23.328;2023-01-19T13:13:41;91751.69;;;15.04;37.17
6198;BME280;3132;42.622;23.328;2023-01-19T13:18:44;91734.72;;;15.01;37.30
6198;BME280;3132;42.622;23.328;2023-01-19T13:21:13;91741.16;;;15.04;37.33
6198;BME280;3132;42.622;23.328;2023-01-19T13:23:55;91746.44;;;15.04;37.11
6198;BME280;3132;42.622;23.328;2023-01-19T13:26:35;91736.81;;;14.96;36.88
6198;BME280;3132;42.622;23.328;2023-01-19T13:29:16;91746.69;;;15.11;37.03
6198;BME280;3132;42.622;23.328;2023-01-19T13:31:45;91756.41;;;15.10;36.67
6198;BME280;3132;42.622;23.328;2023-01-19T13:34:22;91740.53;;;15.07;37.57
6198;BME280;3132;42.622;23.328;2023-01-19T13:36:50;91716.78;;;15.15;37.04
6198;BME280;3132;42.622;23.328;2023-01-19T13:39:39;91725.53;;;15.19;36.92
6198;BME280;3132;42.622;23.328;2023-01-19T13:42:14;91726.63;;;15.18;36.64
6198;BME280;3132;42.622;23.328;2023-01-19T13:44:45;91705.69;;;14.98;36.92
6198;BME280;3132;42.622;23.328;2023-01-19T13:47:25;91710.28;;;15.01;37.02
6198;BME280;3132;42.622;23.328;2023-01-19T13:50:00;91692.19;;;14.87;37.97
6198;BME280;3132;42.622;23.328;2023-01-19T13:52:27;91712.91;;;15.01;36.57
6198;BME280;3132;42.622;23.328;2023-01-19T13:55:01;91713.03;;;15.04;36.52
6198;BME280;3132;42.622;23.328;2023-01-19T13:57:28;91717.84;;;15.02;37.32
6198;BME280;3132;42.622;23.328;2023-01-19T14:02:55;91736.34;;;14.94;37.58
6198;BME280;3132;42.622;23.328;2023-01-19T14:05:25;91722.75;;;14.92;37.54
6198;BME280;3132;42.622;23.328;2023-01-19T14:10:33;91730.28;;;14.69;38.87
6198;BME280;3132;42.622;23.328;2023-01-19T14:13:00;91743.56;;;14.85;39.00
6198;BME280;3132;42.622;23.328;2023-01-19T14:15:27;91679.41;;;14.41;38.68
6198;BME280;3132;42.622;23.328;2023-01-19T14:18:29;91716.34;;;14.69;38.87
6198;BME280;3132;42.622;23.328;2023-01-19T14:21:03;91722.72;;;14.68;39.66
6198;BME280;3132;42.622;23.328;2023-01-19T14:24:05;91716.53;;;14.52;39.15
6198;BME280;3132;42.622;23.328;2023-01-19T14:27:01;91695.22;;;14.32;40.35
6198;BME280;3132;42.622;23.328;2023-01-19T14:29:26;91716.34;;;14.57;39.01
6198;BME280;3132;42.622;23.328;2023-01-19T14:32:11;91719.16;;;14.52;38.40
6198;BME280;3132;42.622;23.328;2023-01-19T14:42:37;91718.97;;;14.15;40.75
6198;BME280;3132;42.622;23.328;2023-01-19T14:45:06;91703.91;;;14.04;40.52
6198;BME280;3132;42.622;23.328;2023-01-19T14:47:40;91726.94;;;14.07;40.96
6198;BME280;3132;42.622;23.328;2023-01-19T14:52:48;91736.78;;;14.10;40.29
6198;BME280;3132;42.622;23.328;2023-01-19T14:55:19;91746.44;;;13.97;41.52
6198;BME280;3132;42.622;23.328;2023-01-19T14:57:45;91733.97;;;13.94;41.29